Terminal Aerodrome Forecast
Issued by NWS Jacksonville, FL

Home | Current Version | Previous Version | Text Only | Print | Product List | Glossary On
Versions: 1 2 3 4 5 6 7 8 9 10 11 12 13 14 15
000
FTUS42 KJAX 051120
TAFGNV
TAF
KGNV 051120Z 0512/0612 00000KT P6SM FEW250
      TEMPO 0512/0513 5SM BR
     FM051400 24005KT P6SM SCT025 SCT120
     FM051800 29006KT P6SM VCTS SCT040CB BKN060
      TEMPO 0518/0522 VRB15G25KT 3SM TSRA BR BKN030CB OVC060
     FM060100 19004KT P6SM SCT100 BKN200=

USA.gov is the U.S. government's official web portal to all federal, state and local government web resources and services.